createdAt,value
2023-04-05T00:01:40.342Z,99.90
2023-04-05T00:04:08.165Z,99.90
2023-04-05T00:06:35.078Z,99.90
2023-04-05T00:09:03.923Z,99.90
2023-04-05T00:11:32.027Z,99.90
2023-04-05T00:14:02.256Z,99.90
2023-04-05T00:16:29.311Z,99.90
2023-04-05T00:19:00.132Z,99.90
2023-04-05T00:21:27.171Z,99.90
2023-04-05T00:23:55.518Z,99.90
2023-04-05T00:26:22.743Z,99.90
2023-04-05T00:28:54.175Z,99.90
2023-04-05T00:31:21.424Z,99.90
2023-04-05T00:33:48.140Z,99.90
2023-04-05T00:36:19.187Z,99.90
2023-04-05T00:38:46.587Z,99.90
2023-04-05T00:41:13.768Z,99.90
2023-04-05T00:43:41.330Z,99.90
2023-04-05T00:46:08.178Z,99.90
2023-04-05T00:48:38.422Z,99.90
2023-04-05T00:51:09.609Z,99.90
2023-04-05T00:53:37.875Z,99.90
2023-04-05T00:56:04.830Z,99.90
2023-04-05T00:58:31.875Z,99.90
2023-04-05T01:01:06.499Z,99.90
2023-04-05T01:03:35.426Z,99.90
2023-04-05T01:06:48.757Z,99.90
2023-04-05T01:09:32.245Z,99.90
2023-04-05T01:12:01.374Z,99.90
2023-04-05T01:14:28.391Z,99.90
2023-04-05T01:16:58.453Z,99.90
2023-04-05T01:19:29.535Z,99.90
2023-04-05T01:22:16.693Z,99.90
2023-04-05T01:25:02.686Z,99.90
2023-04-05T01:27:57.818Z,99.90
2023-04-05T01:30:32.799Z,99.90
2023-04-05T01:33:02.839Z,99.90
2023-04-05T01:35:35.143Z,99.90
2023-04-05T01:38:03.858Z,99.90
2023-04-05T01:40:32.014Z,99.90
2023-04-05T01:43:02.468Z,99.90
2023-04-05T01:45:31.491Z,99.90
2023-04-05T01:47:58.893Z,99.90
2023-04-05T01:50:25.982Z,99.90
2023-04-05T01:52:53.217Z,99.90
2023-04-05T01:55:20.522Z,99.90
2023-04-05T01:57:47.521Z,99.90
2023-04-05T02:00:14.327Z,99.90
2023-04-05T02:02:41.495Z,99.90
2023-04-05T02:05:09.718Z,99.90
2023-04-05T02:07:36.791Z,99.90
2023-04-05T02:10:04.846Z,99.90
2023-04-05T02:12:32.174Z,99.90
2023-04-05T02:14:59.190Z,99.90
2023-04-05T02:17:26.167Z,99.90
2023-04-05T02:19:53.229Z,99.90
2023-04-05T02:22:21.309Z,99.90
2023-04-05T02:24:48.957Z,99.90
2023-04-05T02:27:15.773Z,99.90
2023-04-05T02:29:42.778Z,99.90
2023-04-05T02:32:10.378Z,99.90
2023-04-05T02:34:41.182Z,99.90
2023-04-05T02:37:08.592Z,99.90
2023-04-05T02:39:35.961Z,99.90
2023-04-05T02:42:03.490Z,99.90
2023-04-05T02:44:30.942Z,99.90
2023-04-05T02:46:58.340Z,99.90
2023-04-05T02:49:32.265Z,99.90
2023-04-05T02:52:02.164Z,99.90
2023-04-05T02:54:29.072Z,99.90
2023-04-05T02:57:02.511Z,99.90
2023-04-05T02:59:36.649Z,99.90
2023-04-05T03:02:06.210Z,99.90
2023-04-05T03:04:34.807Z,99.90
2023-04-05T03:07:04.615Z,99.90
2023-04-05T03:09:35.209Z,99.90
2023-04-05T03:12:06.487Z,99.90
2023-04-05T03:14:38.567Z,99.90
2023-04-05T03:17:06.477Z,99.90
2023-04-05T03:19:38.777Z,99.90
2023-04-05T03:22:19.658Z,99.90
2023-04-05T03:24:47.631Z,99.90
2023-04-05T03:27:18.894Z,99.90
2023-04-05T03:30:07.799Z,99.90
2023-04-05T03:32:39.864Z,99.90
2023-04-05T03:35:16.967Z,99.90
2023-04-05T03:37:46.432Z,99.90
2023-04-05T03:40:14.640Z,99.90
2023-04-05T03:42:41.544Z,99.90
2023-04-05T03:45:08.563Z,99.90
2023-04-05T03:47:35.458Z,99.90
2023-04-05T03:50:05.651Z,99.90
2023-04-05T03:52:32.636Z,99.90
2023-04-05T03:55:01.093Z,99.90
2023-04-05T03:57:30.246Z,99.90
2023-04-05T04:00:00.661Z,99.90
2023-04-05T04:02:31.316Z,99.90
2023-04-05T04:04:59.278Z,99.90
2023-04-05T04:07:27.183Z,99.90
2023-04-05T04:09:55.560Z,99.90
2023-04-05T04:12:25.033Z,99.90
2023-04-05T04:14:58.823Z,99.90
2023-04-05T04:17:49.755Z,99.90
2023-04-05T04:20:30.892Z,99.90
2023-04-05T04:23:10.076Z,99.90
2023-04-05T04:26:01.606Z,99.90
2023-04-05T04:28:56.157Z,99.90
2023-04-05T04:31:34.514Z,99.90
2023-04-05T04:34:14.820Z,99.90
2023-04-05T04:37:01.587Z,99.90
2023-04-05T04:39:52.784Z,99.90
2023-04-05T04:42:22.917Z,99.90
2023-04-05T04:45:23.005Z,99.90
2023-04-05T04:48:15.034Z,99.90
2023-04-05T04:50:59.745Z,99.90
2023-04-05T04:53:28.834Z,99.90
2023-04-05T04:55:57.327Z,99.90
2023-04-05T04:58:24.747Z,99.90
2023-04-05T05:01:01.322Z,99.90
2023-04-05T05:03:29.403Z,99.90
2023-04-05T05:05:56.963Z,99.90
2023-04-05T05:08:29.501Z,99.90
2023-04-05T05:10:57.419Z,99.90
2023-04-05T05:13:24.832Z,99.90
2023-04-05T05:15:51.812Z,99.90
2023-04-05T05:18:18.954Z,99.90
2023-04-05T05:20:47.300Z,99.90
2023-04-05T05:23:14.427Z,99.90
2023-04-05T05:25:42.759Z,99.90
2023-04-05T05:28:09.992Z,99.90
2023-04-05T05:30:36.766Z,99.90
2023-04-05T05:33:04.192Z,99.90
2023-04-05T05:35:31.126Z,99.90
2023-04-05T05:37:57.955Z,99.90
2023-04-05T05:40:26.835Z,99.90
2023-04-05T05:42:55.577Z,99.90
2023-04-05T05:45:23.297Z,99.90
2023-04-05T05:47:50.665Z,99.90
2023-04-05T05:50:20.544Z,99.90
2023-04-05T05:52:47.411Z,99.90
2023-04-05T05:55:14.562Z,99.90
2023-04-05T05:57:41.740Z,99.90
2023-04-05T06:00:10.590Z,99.90
2023-04-05T06:02:41.567Z,99.90
2023-04-05T06:05:08.857Z,99.90
2023-04-05T06:07:37.237Z,99.90
2023-04-05T06:10:06.134Z,99.90
2023-04-05T06:12:32.873Z,99.90
2023-04-05T06:15:01.288Z,99.90
2023-04-05T06:17:28.612Z,99.90
2023-04-05T06:19:55.593Z,99.90
2023-04-05T06:22:23.813Z,99.90
2023-04-05T06:24:50.911Z,99.90
2023-04-05T06:27:17.662Z,99.90
2023-04-05T06:29:44.728Z,99.90
2023-04-05T06:32:11.429Z,99.90
2023-04-05T06:34:38.804Z,99.90
2023-04-05T06:37:06.151Z,99.90
2023-04-05T06:39:33.580Z,99.90
2023-04-05T06:42:01.534Z,99.90
2023-04-05T06:44:37.999Z,99.90
2023-04-05T06:47:05.901Z,99.90
2023-04-05T06:49:33.434Z,99.90
2023-04-05T06:52:01.704Z,99.90
2023-04-05T06:54:29.706Z,99.90
2023-04-05T06:56:57.751Z,99.90
2023-04-05T06:59:25.950Z,99.90
2023-04-05T07:01:53.209Z,99.90
2023-04-05T07:04:20.845Z,99.90
2023-04-05T07:06:48.533Z,99.90
2023-04-05T07:09:15.574Z,99.90
2023-04-05T07:11:43.430Z,99.90
2023-04-05T07:14:10.866Z,99.90
2023-04-05T07:16:38.706Z,99.90
2023-04-05T07:19:07.263Z,99.90
2023-04-05T07:21:34.710Z,99.90
2023-04-05T07:24:06.080Z,99.90
2023-04-05T07:26:36.098Z,99.90
2023-04-05T07:29:04.319Z,99.90
2023-04-05T07:31:31.747Z,99.90
2023-04-05T07:34:00.255Z,99.90
2023-04-05T07:36:28.220Z,99.90
2023-04-05T07:38:57.329Z,99.90
2023-04-05T07:41:28.426Z,99.90
2023-04-05T07:43:55.759Z,99.90
2023-04-05T07:46:22.995Z,99.90
2023-04-05T07:48:52.095Z,99.90
2023-04-05T07:51:19.108Z,99.90
2023-04-05T07:53:45.968Z,99.90
2023-04-05T07:56:14.244Z,99.90
2023-04-05T07:58:41.266Z,99.90
2023-04-05T08:01:09.736Z,99.90
2023-04-05T08:03:37.049Z,99.90
2023-04-05T08:06:33.043Z,99.90
2023-04-05T08:09:00.376Z,99.90
2023-04-05T08:11:27.745Z,99.90
2023-04-05T08:13:54.826Z,98.00
2023-04-05T08:16:21.870Z,98.30
2023-04-05T08:18:48.951Z,97.50
2023-04-05T08:21:16.110Z,95.80
2023-04-05T08:23:43.755Z,95.20
2023-04-05T08:26:12.519Z,93.90
2023-04-05T08:28:39.899Z,93.40
2023-04-05T08:31:07.120Z,94.60
2023-04-05T08:33:34.607Z,95.20
2023-04-05T08:36:08.268Z,94.00
2023-04-05T08:38:35.878Z,93.30
2023-04-05T08:41:19.195Z,91.90
2023-04-05T08:44:02.788Z,91.60
2023-04-05T08:46:32.134Z,91.20
2023-04-05T08:48:59.006Z,92.10
2023-04-05T08:51:28.971Z,92.30
2023-04-05T08:53:56.216Z,92.30
2023-04-05T08:56:28.255Z,92.90
2023-04-05T08:59:05.492Z,91.90
2023-04-05T09:01:33.563Z,91.70
2023-04-05T09:04:02.114Z,91.50
2023-04-05T09:06:29.569Z,92.40
2023-04-05T09:08:58.480Z,92.10
2023-04-05T09:11:26.535Z,90.10
2023-04-05T09:13:53.847Z,90.40
2023-04-05T09:16:21.608Z,90.50
2023-04-05T09:18:49.301Z,88.30
2023-04-05T09:21:17.663Z,89.10
2023-04-05T09:23:54.096Z,87.20
2023-04-05T09:26:22.000Z,85.30
2023-04-05T09:28:51.859Z,86.10
2023-04-05T09:31:32.085Z,83.70
2023-04-05T09:34:01.017Z,80.30
2023-04-05T09:36:28.367Z,83.90
2023-04-05T09:39:08.541Z,82.10
2023-04-05T09:41:36.091Z,84.50
2023-04-05T09:44:02.859Z,86.00
2023-04-05T09:46:34.487Z,82.90
2023-04-05T09:49:02.278Z,87.00
2023-04-05T09:51:33.752Z,81.30
2023-04-05T09:54:07.903Z,83.70
2023-04-05T09:56:37.215Z,82.70
2023-04-05T09:59:12.083Z,80.60
2023-04-05T10:01:41.315Z,81.00
2023-04-05T10:04:08.801Z,77.10
2023-04-05T10:06:39.011Z,78.90
2023-04-05T10:09:07.017Z,78.20
2023-04-05T10:11:34.829Z,82.40
2023-04-05T10:14:03.869Z,81.50
2023-04-05T10:16:36.840Z,79.90
2023-04-05T10:19:06.195Z,77.80
2023-04-05T10:21:46.471Z,78.80
2023-04-05T10:36:24.592Z,83.50
2023-04-05T10:39:16.227Z,84.40
2023-04-05T10:41:57.970Z,77.80
2023-04-05T11:10:51.347Z,75.50
2023-04-05T11:13:54.754Z,72.90
2023-04-05T11:24:58.675Z,65.40
2023-04-05T11:27:39.599Z,62.00
2023-04-05T11:30:58.499Z,61.80
2023-04-05T11:33:40.666Z,64.70
2023-04-05T11:45:43.909Z,64.50
2023-04-05T11:48:11.817Z,58.90
2023-04-05T11:50:39.228Z,58.20
2023-04-05T11:53:16.436Z,59.70
2023-04-05T11:55:50.437Z,59.10
2023-04-05T11:58:24.383Z,55.50
2023-04-05T12:01:11.367Z,60.10
2023-04-05T12:03:38.429Z,58.10
2023-04-05T12:06:06.384Z,59.20
2023-04-05T12:08:40.374Z,58.40
2023-04-05T12:11:07.953Z,59.40
2023-04-05T12:13:43.709Z,59.10
2023-04-05T12:16:10.469Z,57.80
2023-04-05T12:18:37.401Z,58.90
2023-04-05T12:21:13.312Z,57.20
2023-04-05T12:23:40.546Z,56.50
2023-04-05T12:26:07.807Z,51.40
2023-04-05T12:28:57.296Z,56.00
2023-04-05T12:31:39.946Z,54.10
2023-04-05T12:34:06.850Z,51.50
2023-04-05T12:36:33.567Z,52.20
2023-04-05T12:39:00.836Z,51.40
2023-04-05T12:41:29.642Z,52.00
2023-04-05T12:44:05.139Z,49.20
2023-04-05T12:46:41.978Z,49.30
2023-04-05T12:49:15.321Z,51.00
2023-04-05T12:51:46.136Z,46.40
2023-04-05T12:54:21.483Z,49.50
2023-04-05T12:56:50.597Z,50.20
2023-04-05T12:59:17.393Z,50.90
2023-04-05T13:01:44.204Z,50.00
2023-04-05T13:06:40.652Z,55.90
2023-04-05T13:09:07.473Z,56.40
2023-04-05T13:11:34.188Z,55.60
2023-04-05T13:14:00.873Z,57.40
2023-04-05T13:16:27.866Z,58.70
2023-04-05T13:18:54.692Z,63.50
2023-04-05T13:21:21.342Z,58.80
2023-04-05T13:23:48.009Z,59.80
2023-04-05T13:26:14.673Z,59.20
2023-04-05T13:28:41.336Z,60.60
2023-04-05T13:31:08.292Z,62.80
2023-04-05T13:33:35.277Z,63.00
2023-04-05T13:36:01.989Z,61.40
2023-04-05T13:38:28.725Z,62.90
2023-04-05T13:40:55.626Z,64.10
2023-04-05T13:43:22.499Z,60.50
2023-04-05T13:45:49.386Z,62.20
2023-04-05T13:48:16.153Z,62.70
2023-04-05T13:50:42.946Z,61.00
2023-04-05T13:53:09.749Z,66.00
2023-04-05T13:55:36.844Z,67.60
2023-04-05T13:58:03.546Z,66.00
2023-04-05T14:00:30.206Z,65.30
2023-04-05T14:02:56.958Z,62.50
2023-04-05T14:05:23.755Z,66.70
2023-04-05T14:07:50.551Z,68.80
2023-04-05T14:10:17.725Z,67.20
2023-04-05T14:12:44.435Z,63.60
2023-04-05T14:15:11.603Z,71.10
2023-04-05T14:17:38.402Z,69.40
2023-04-05T14:20:06.499Z,70.40
2023-04-05T14:22:33.204Z,69.90
2023-04-05T14:24:59.938Z,73.20
2023-04-05T14:27:28.279Z,71.90
2023-04-05T14:29:57.013Z,69.30
2023-04-05T14:32:27.050Z,66.50
2023-04-05T14:34:53.793Z,65.70
2023-04-05T14:37:20.863Z,62.60
2023-04-05T14:39:47.539Z,69.50
2023-04-05T14:42:14.277Z,66.20
2023-04-05T14:44:41.000Z,66.20
2023-04-05T14:47:07.730Z,67.10
2023-04-05T14:49:34.431Z,65.80
2023-04-05T14:52:02.272Z,66.40
2023-04-05T14:54:29.268Z,66.10
2023-04-05T14:56:55.953Z,70.50
2023-04-05T14:59:22.844Z,73.70
2023-04-05T15:01:49.709Z,66.80
2023-04-05T15:04:16.383Z,62.70
2023-04-05T15:06:43.121Z,66.40
2023-04-05T15:09:09.838Z,64.60
2023-04-05T15:11:39.040Z,65.40
2023-04-05T15:14:07.440Z,68.00
2023-04-05T15:16:34.461Z,69.60
2023-04-05T15:19:01.175Z,69.20
2023-04-05T15:21:27.887Z,67.70
2023-04-05T15:23:54.603Z,67.40
2023-04-05T15:26:21.864Z,67.30
2023-04-05T15:28:48.609Z,72.40
2023-04-05T15:31:15.366Z,67.60
2023-04-05T15:33:42.122Z,68.30
2023-04-05T15:36:08.910Z,68.30
2023-04-05T15:38:35.623Z,63.20
2023-04-05T15:41:02.322Z,65.90
2023-04-05T15:43:30.356Z,66.50
2023-04-05T15:45:57.119Z,64.20
2023-04-05T15:48:23.817Z,65.30
2023-04-05T15:50:50.515Z,62.40
2023-04-05T15:53:17.445Z,64.50
2023-04-05T15:55:44.112Z,67.50
2023-04-05T15:58:10.982Z,67.50
2023-04-05T16:00:37.936Z,65.90
2023-04-05T16:03:04.727Z,65.70
2023-04-05T16:05:31.583Z,65.10
2023-04-05T16:07:59.371Z,65.00
2023-04-05T16:10:26.110Z,67.00
2023-04-05T16:12:54.029Z,69.00
2023-04-05T16:15:20.788Z,70.40
2023-04-05T16:17:47.491Z,71.80
2023-04-05T16:20:14.301Z,73.10
2023-04-05T16:22:41.379Z,72.60
2023-04-05T16:25:08.300Z,73.10
2023-04-05T16:27:36.926Z,72.10
2023-04-05T16:30:03.719Z,71.60
2023-04-05T16:32:30.443Z,67.50
2023-04-05T16:34:57.144Z,68.70
2023-04-05T16:37:23.926Z,71.30
2023-04-05T16:39:50.629Z,72.70
2023-04-05T16:42:17.313Z,70.00
2023-04-05T16:44:44.070Z,70.20
2023-04-05T16:47:10.887Z,66.90
2023-04-05T16:49:40.142Z,64.10
2023-04-05T16:52:07.173Z,63.90
2023-04-05T16:54:33.869Z,68.80
2023-04-05T16:57:00.829Z,69.60
2023-04-05T16:59:27.675Z,70.20
2023-04-05T17:01:54.372Z,70.20
2023-04-05T17:04:21.182Z,71.10
2023-04-05T17:06:47.903Z,69.40
2023-04-05T17:09:15.048Z,72.30
2023-04-05T17:11:41.764Z,73.10
2023-04-05T17:14:08.458Z,74.60
2023-04-05T17:16:35.177Z,74.30
2023-04-05T17:19:02.113Z,75.40
2023-04-05T17:21:29.071Z,76.20
2023-04-05T17:23:55.813Z,76.40
2023-04-05T17:26:26.388Z,75.20
2023-04-05T17:28:53.097Z,76.40
2023-04-05T17:31:19.825Z,76.10
2023-04-05T17:33:48.727Z,76.80
2023-04-05T17:36:16.689Z,76.00
2023-04-05T17:38:44.276Z,76.00
2023-04-05T17:41:11.032Z,76.70
2023-04-05T17:43:37.841Z,76.00
2023-04-05T17:46:04.852Z,76.10
2023-04-05T17:48:32.839Z,76.10
2023-04-05T17:51:04.626Z,77.10
2023-04-05T17:53:31.345Z,78.80
2023-04-05T17:55:58.192Z,77.80
2023-04-05T17:58:24.972Z,79.30
2023-04-05T18:00:54.434Z,81.90
2023-04-05T18:03:21.586Z,83.70
2023-04-05T18:05:54.538Z,80.90
2023-04-05T18:08:21.520Z,77.80
2023-04-05T18:10:48.253Z,78.30
2023-04-05T18:13:15.755Z,78.30
2023-04-05T18:15:42.521Z,79.80
2023-04-05T18:18:09.371Z,78.80
2023-04-05T18:20:36.266Z,80.40
2023-04-05T18:23:03.029Z,80.80
2023-04-05T18:25:29.737Z,81.70
2023-04-05T18:27:56.450Z,81.10
2023-04-05T18:30:23.223Z,81.20
2023-04-05T18:32:50.638Z,82.10
2023-04-05T18:35:17.548Z,81.80
2023-04-05T18:37:46.382Z,84.20
2023-04-05T18:40:13.167Z,83.20
2023-04-05T18:42:39.941Z,83.10
2023-04-05T18:45:07.623Z,83.00
2023-04-05T18:47:36.347Z,82.10
2023-04-05T18:50:03.506Z,86.30
2023-04-05T18:52:34.004Z,86.60
2023-04-05T18:55:01.358Z,86.20
2023-04-05T18:57:28.525Z,86.60
2023-04-05T18:59:55.537Z,85.80
2023-04-05T19:02:22.480Z,90.50
2023-04-05T19:04:49.567Z,91.30
2023-04-05T19:07:16.377Z,91.70
2023-04-05T19:09:43.128Z,92.00
2023-04-05T19:12:09.840Z,92.40
2023-04-05T19:14:36.706Z,93.00
2023-04-05T19:17:03.502Z,93.50
2023-04-05T19:19:30.676Z,93.40
2023-04-05T19:22:00.003Z,93.30
2023-04-05T19:24:27.318Z,94.00
2023-04-05T19:26:55.176Z,94.10
2023-04-05T19:29:24.351Z,94.10
2023-04-05T19:31:51.512Z,94.90
2023-04-05T19:34:18.947Z,95.00
2023-04-05T19:36:46.243Z,95.20
2023-04-05T19:39:12.970Z,95.10
2023-04-05T19:41:40.286Z,95.00
2023-04-05T19:44:09.379Z,95.90
2023-04-05T19:46:39.292Z,95.50
2023-04-05T19:49:10.947Z,95.70
2023-04-05T19:51:37.759Z,95.80
2023-04-05T19:54:09.358Z,96.50
2023-04-05T19:56:37.345Z,96.70
2023-04-05T19:59:12.552Z,97.30
2023-04-05T20:01:46.997Z,97.20
2023-04-05T20:04:17.185Z,97.30
2023-04-05T20:06:46.285Z,97.00
2023-04-05T20:09:14.861Z,97.30
2023-04-05T20:11:41.569Z,97.30
2023-04-05T20:14:08.383Z,97.80
2023-04-05T20:16:36.151Z,98.30
2023-04-05T20:19:03.745Z,98.30
2023-04-05T20:21:30.833Z,98.20
2023-04-05T20:23:58.038Z,97.90
2023-04-05T20:26:30.220Z,98.10
2023-04-05T20:29:01.299Z,98.40
2023-04-05T20:31:32.535Z,98.90
2023-04-05T20:34:06.716Z,99.20
2023-04-05T20:36:34.417Z,99.60
2023-04-05T20:39:01.899Z,99.60
2023-04-05T20:41:29.062Z,99.90
2023-04-05T20:43:56.452Z,99.90
2023-04-05T20:46:23.384Z,99.90
2023-04-05T20:48:50.980Z,99.90
2023-04-05T20:51:18.436Z,99.90
2023-04-05T20:53:45.223Z,99.90
2023-04-05T20:56:12.889Z,99.90
2023-04-05T20:58:39.892Z,99.90
2023-04-05T21:01:07.478Z,99.90
2023-04-05T21:03:36.722Z,99.90
2023-04-05T21:06:03.795Z,99.90
2023-04-05T21:08:30.770Z,99.90
2023-04-05T21:10:58.501Z,99.90
2023-04-05T21:13:27.802Z,99.90
2023-04-05T21:15:55.121Z,99.90
2023-04-05T21:18:23.822Z,99.90
2023-04-05T21:20:51.774Z,99.90
2023-04-05T21:23:23.063Z,99.90
2023-04-05T21:25:49.933Z,99.90
2023-04-05T21:28:16.737Z,99.90
2023-04-05T21:30:43.753Z,99.90
2023-04-05T21:33:10.804Z,99.90
2023-04-05T21:35:37.860Z,99.90
2023-04-05T21:38:04.724Z,99.90
2023-04-05T21:40:31.720Z,99.90
2023-04-05T21:43:13.629Z,99.90
2023-04-05T21:45:40.593Z,99.90
2023-04-05T21:48:07.396Z,99.90
2023-04-05T21:50:34.672Z,99.90
2023-04-05T21:53:01.895Z,99.90
2023-04-05T21:55:28.608Z,99.90
2023-04-05T21:57:55.381Z,99.90
2023-04-05T22:00:22.306Z,99.90
2023-04-05T22:02:49.075Z,99.90
2023-04-05T22:05:29.384Z,99.90
2023-04-05T22:08:01.371Z,99.90
2023-04-05T22:10:28.545Z,99.90
2023-04-05T22:12:55.450Z,99.90
2023-04-05T22:15:22.534Z,99.90
2023-04-05T22:17:49.264Z,99.90
2023-04-05T22:20:16.081Z,99.90
2023-04-05T22:22:43.071Z,99.90
2023-04-05T22:25:10.039Z,99.90
2023-04-05T22:27:37.396Z,99.90
2023-04-05T22:30:04.749Z,99.90
2023-04-05T22:32:31.546Z,99.90
2023-04-05T22:34:58.376Z,99.90
2023-04-05T22:37:25.188Z,99.90
2023-04-05T22:39:51.909Z,99.90
2023-04-05T22:42:18.674Z,99.90
2023-04-05T22:44:45.637Z,99.90
2023-04-05T22:47:12.321Z,99.90
2023-04-05T22:49:39.052Z,99.90
2023-04-05T22:52:06.169Z,99.90
2023-04-05T22:54:33.572Z,99.90
2023-04-05T22:57:00.426Z,99.90
2023-04-05T22:59:27.255Z,99.90
2023-04-05T23:01:53.970Z,99.90
2023-04-05T23:04:21.475Z,99.90
2023-04-05T23:06:48.561Z,99.90
2023-04-05T23:09:15.264Z,99.90
2023-04-05T23:11:42.884Z,99.90
2023-04-05T23:14:09.865Z,99.90
2023-04-05T23:16:36.757Z,99.90
2023-04-05T23:19:03.739Z,99.90
2023-04-05T23:21:31.091Z,99.90
2023-04-05T23:23:57.871Z,99.90
2023-04-05T23:26:24.868Z,99.90
2023-04-05T23:28:51.638Z,99.90
2023-04-05T23:31:19.248Z,99.90
2023-04-05T23:33:45.962Z,99.90
2023-04-05T23:36:12.716Z,99.90
2023-04-05T23:38:39.509Z,99.90
2023-04-05T23:41:06.895Z,99.90
2023-04-05T23:43:33.629Z,99.90
2023-04-05T23:46:00.670Z,99.90
2023-04-05T23:48:27.405Z,99.90
2023-04-05T23:50:54.126Z,99.90
2023-04-05T23:53:20.977Z,99.90
2023-04-05T23:55:49.317Z,99.90
2023-04-05T23:58:16.545Z,99.90
